createdAt,value
2018-06-09T00:00:23.335Z,19.47
2018-06-09T00:01:23.320Z,19.46
2018-06-09T00:02:23.307Z,19.40
2018-06-09T00:03:23.309Z,19.47
2018-06-09T00:04:23.276Z,19.44
2018-06-09T00:05:23.263Z,19.41
2018-06-09T00:06:23.249Z,19.43
2018-06-09T00:07:23.233Z,19.39
2018-06-09T00:08:23.221Z,19.31
2018-06-09T00:09:23.215Z,19.37
2018-06-09T00:10:23.189Z,19.32
2018-06-09T00:11:23.176Z,19.29
2018-06-09T00:12:23.168Z,19.37
2018-06-09T00:13:23.148Z,19.36
2018-06-09T00:14:23.142Z,19.36
2018-06-09T00:15:23.116Z,19.36
2018-06-09T00:16:23.104Z,19.26
2018-06-09T00:17:23.089Z,19.32
2018-06-09T00:18:23.073Z,19.25
2018-06-09T00:19:23.324Z,19.26
2018-06-09T00:20:23.043Z,19.26
2018-06-09T00:21:23.032Z,19.22
2018-06-09T00:22:23.016Z,19.32
2018-06-09T00:23:23.001Z,19.31
2018-06-09T00:24:22.986Z,19.26
2018-06-09T00:25:22.989Z,19.22
2018-06-09T00:26:22.957Z,19.23
2018-06-09T00:27:22.944Z,19.23
2018-06-09T00:28:22.929Z,19.16
2018-06-09T00:29:22.917Z,19.26
2018-06-09T00:30:22.914Z,19.26
2018-06-09T00:31:22.888Z,19.19
2018-06-09T00:32:22.870Z,19.29
2018-06-09T00:33:22.857Z,19.19
2018-06-09T00:34:22.841Z,19.22
2018-06-09T00:35:22.832Z,19.16
2018-06-09T00:36:22.825Z,19.18
2018-06-09T00:37:22.798Z,19.16
2018-06-09T00:38:22.781Z,19.16
2018-06-09T00:39:22.768Z,19.14
2018-06-09T00:40:22.756Z,19.14
2018-06-09T00:41:22.750Z,19.21
2018-06-09T00:42:22.724Z,19.10
2018-06-09T00:43:22.712Z,19.19
2018-06-09T00:44:22.700Z,19.22
2018-06-09T00:45:22.682Z,19.18
2018-06-09T00:46:22.946Z,19.10
2018-06-09T00:47:22.659Z,19.21
2018-06-09T00:48:22.637Z,19.16
2018-06-09T00:49:22.623Z,19.18
2018-06-09T00:50:22.612Z,19.11
2018-06-09T00:51:22.595Z,19.21
2018-06-09T00:52:22.591Z,19.06
2018-06-09T00:53:22.572Z,19.14
2018-06-09T00:54:22.549Z,19.08
2018-06-09T00:55:22.535Z,19.06
2018-06-09T00:56:22.520Z,19.11
2018-06-09T00:57:22.781Z,18.99
2018-06-09T00:58:22.499Z,18.99
2018-06-09T00:59:22.476Z,18.99
2018-06-09T01:00:22.467Z,19.02
2018-06-09T01:01:22.449Z,18.95
2018-06-09T01:02:22.433Z,19.07
2018-06-09T01:03:22.427Z,18.99
2018-06-09T01:04:22.403Z,18.99
2018-06-09T01:05:22.387Z,18.94
2018-06-09T01:06:22.373Z,18.99
2018-06-09T01:07:22.359Z,18.99
2018-06-09T01:08:22.361Z,18.98
2018-06-09T01:09:22.330Z,18.95
2018-06-09T01:10:22.319Z,18.91
2018-06-09T01:11:22.300Z,18.94
2018-06-09T01:12:22.287Z,18.87
2018-06-09T01:13:22.273Z,18.94
2018-06-09T01:14:22.273Z,18.95
2018-06-09T01:15:22.242Z,18.91
2018-06-09T01:16:22.227Z,18.88
2018-06-09T01:17:22.214Z,18.82
2018-06-09T01:18:22.209Z,18.72
2018-06-09T01:19:22.183Z,18.76
2018-06-09T01:20:22.179Z,18.66
2018-06-09T01:21:22.154Z,18.69
2018-06-09T01:22:22.138Z,18.65
2018-06-09T01:23:22.127Z,18.60
2018-06-09T01:24:22.111Z,18.73
2018-06-09T01:25:22.107Z,18.75
2018-06-09T01:26:22.081Z,18.67
2018-06-09T01:27:22.064Z,18.63
2018-06-09T01:28:22.054Z,18.62
2018-06-09T01:29:22.036Z,18.47
2018-06-09T01:30:22.031Z,18.57
2018-06-09T01:31:22.018Z,18.55
2018-06-09T01:32:21.991Z,18.45
2018-06-09T01:33:21.973Z,18.45
2018-06-09T01:34:21.959Z,18.44
2018-06-09T01:35:21.983Z,18.48
2018-06-09T01:36:21.931Z,18.42
2018-06-09T01:37:21.918Z,18.41
2018-06-09T01:38:21.901Z,18.25
2018-06-09T01:39:21.888Z,18.35
2018-06-09T01:40:21.874Z,18.36
2018-06-09T01:41:21.875Z,18.32
2018-06-09T01:42:21.847Z,18.27
2018-06-09T01:43:21.832Z,18.27
2018-06-09T01:44:21.815Z,18.32
2018-06-09T01:45:21.797Z,18.29
2018-06-09T01:46:21.782Z,18.27
2018-06-09T01:47:21.776Z,18.26
2018-06-09T01:48:21.751Z,18.36
2018-06-09T01:49:21.738Z,18.12
2018-06-09T01:50:21.723Z,18.29
2018-06-09T01:51:21.715Z,18.32
2018-06-09T01:52:21.703Z,18.25
2018-06-09T01:53:21.678Z,18.29
2018-06-09T01:54:21.664Z,18.14
2018-06-09T01:55:21.649Z,18.17
2018-06-09T01:56:21.635Z,18.11
2018-06-09T01:57:21.634Z,18.20
2018-06-09T01:58:21.603Z,18.20
2018-06-09T01:59:21.591Z,18.10
2018-06-09T02:00:21.575Z,18.14
2018-06-09T02:01:21.562Z,18.12
2018-06-09T02:02:21.543Z,18.08
2018-06-09T02:03:21.544Z,18.02
2018-06-09T02:04:21.514Z,17.96
2018-06-09T02:05:21.499Z,18.03
2018-06-09T02:06:21.485Z,17.96
2018-06-09T02:07:21.502Z,17.96
2018-06-09T02:08:21.470Z,17.95
2018-06-09T02:09:21.442Z,17.92
2018-06-09T02:10:21.424Z,17.84
2018-06-09T02:11:21.408Z,17.95
2018-06-09T02:12:21.395Z,17.87
2018-06-09T02:13:21.383Z,17.96
2018-06-09T02:14:21.375Z,17.90
2018-06-09T02:15:21.351Z,17.96
2018-06-09T02:16:21.336Z,17.86
2018-06-09T02:17:21.320Z,17.81
2018-06-09T02:18:21.306Z,17.92
2018-06-09T02:19:21.309Z,17.86
2018-06-09T02:20:21.276Z,17.84
2018-06-09T02:21:21.262Z,17.95
2018-06-09T02:22:21.246Z,17.84
2018-06-09T02:23:21.230Z,17.84
2018-06-09T02:24:21.215Z,17.86
2018-06-09T02:25:21.212Z,17.89
2018-06-09T02:26:21.190Z,17.82
2018-06-09T02:27:21.168Z,17.89
2018-06-09T02:28:21.158Z,17.81
2018-06-09T02:29:21.141Z,17.78
2018-06-09T02:30:21.137Z,17.78
2018-06-09T02:31:21.111Z,17.92
2018-06-09T02:32:21.095Z,17.95
2018-06-09T02:33:21.081Z,17.84
2018-06-09T02:34:21.069Z,17.93
2018-06-09T02:35:21.069Z,17.93
2018-06-09T02:36:21.036Z,17.96
2018-06-09T02:37:21.023Z,17.97
2018-06-09T02:38:21.006Z,18.02
2018-06-09T02:39:20.993Z,17.93
2018-06-09T02:40:20.976Z,18.05
2018-06-09T02:41:20.977Z,17.96
2018-06-09T02:42:20.946Z,18.02
2018-06-09T02:43:20.935Z,18.10
2018-06-09T02:44:20.916Z,18.05
2018-06-09T02:45:20.901Z,18.03
2018-06-09T02:46:20.884Z,18.07
2018-06-09T02:47:20.881Z,18.07
2018-06-09T02:48:20.861Z,18.11
2018-06-09T02:49:20.840Z,18.07
2018-06-09T02:50:20.829Z,18.11
2018-06-09T02:51:20.809Z,18.03
2018-06-09T02:52:20.816Z,18.10
2018-06-09T02:53:20.781Z,18.07
2018-06-09T02:54:20.764Z,18.11
2018-06-09T02:55:20.750Z,18.10
2018-06-09T02:56:20.735Z,18.12
2018-06-09T02:57:20.731Z,18.07
2018-06-09T02:58:20.711Z,18.18
2018-06-09T02:59:20.692Z,18.14
2018-06-09T03:00:20.676Z,18.14
2018-06-09T03:01:20.661Z,18.07
2018-06-09T03:02:20.919Z,18.11
2018-06-09T03:03:20.630Z,18.05
2018-06-09T03:04:20.615Z,18.05
2018-06-09T03:05:20.601Z,18.08
2018-06-09T03:06:20.586Z,18.10
2018-06-09T03:07:20.572Z,18.08
2018-06-09T03:08:20.875Z,18.15
2018-06-09T03:09:20.544Z,18.11
2018-06-09T03:10:20.525Z,18.08
2018-06-09T03:11:20.512Z,18.11
2018-06-09T03:12:20.502Z,18.11
2018-06-09T03:13:20.482Z,18.20
2018-06-09T03:14:20.477Z,18.29
2018-06-09T03:15:20.454Z,18.29
2018-06-09T03:16:20.437Z,18.29
2018-06-09T03:17:20.422Z,18.27
2018-06-09T03:18:20.405Z,18.23
2018-06-09T03:19:20.401Z,18.36
2018-06-09T03:20:20.376Z,18.25
2018-06-09T03:21:20.363Z,18.32
2018-06-09T03:22:20.346Z,18.29
2018-06-09T03:23:20.331Z,18.32
2018-06-09T03:24:20.332Z,18.26
2018-06-09T03:25:20.303Z,18.29
2018-06-09T03:26:20.286Z,18.26
2018-06-09T03:27:20.273Z,18.26
2018-06-09T03:28:20.259Z,18.27
2018-06-09T03:29:20.243Z,18.23
2018-06-09T03:30:20.243Z,18.27
2018-06-09T03:31:20.214Z,18.27
2018-06-09T03:32:20.203Z,18.39
2018-06-09T03:33:20.184Z,18.25
2018-06-09T03:34:20.171Z,18.36
2018-06-09T03:35:20.153Z,18.36
2018-06-09T03:36:20.152Z,18.36
2018-06-09T03:37:20.124Z,18.35
2018-06-09T03:38:20.110Z,18.42
2018-06-09T03:39:20.095Z,18.54
2018-06-09T03:40:20.085Z,18.50
2018-06-09T03:41:20.346Z,18.57
2018-06-09T03:42:20.054Z,18.55
2018-06-09T03:43:20.099Z,18.54
2018-06-09T03:44:20.023Z,18.63
2018-06-09T03:45:20.009Z,18.57
2018-06-09T03:46:19.991Z,18.72
2018-06-09T03:47:19.987Z,18.66
2018-06-09T03:48:19.962Z,18.75
2018-06-09T03:49:19.947Z,18.78
2018-06-09T03:50:19.932Z,18.69
2018-06-09T03:51:19.920Z,18.80
2018-06-09T03:52:19.913Z,18.84
2018-06-09T03:53:19.890Z,18.80
2018-06-09T03:54:19.874Z,18.84
2018-06-09T03:55:19.857Z,18.84
2018-06-09T03:56:19.846Z,18.82
2018-06-09T03:57:19.845Z,18.88
2018-06-09T03:58:19.812Z,18.87
2018-06-09T03:59:19.800Z,18.88
2018-06-09T04:00:19.785Z,18.81
2018-06-09T04:01:19.773Z,18.81
2018-06-09T04:02:19.755Z,18.84
2018-06-09T04:03:19.757Z,18.88
2018-06-09T04:04:19.728Z,18.87
2018-06-09T04:05:19.713Z,18.87
2018-06-09T04:06:19.696Z,18.84
2018-06-09T04:07:19.684Z,18.85
2018-06-09T04:08:19.668Z,18.91
2018-06-09T04:09:19.665Z,18.91
2018-06-09T04:10:19.640Z,18.87
2018-06-09T04:11:19.627Z,18.92
2018-06-09T04:12:19.610Z,18.92
2018-06-09T04:13:19.594Z,18.85
2018-06-09T04:14:19.593Z,18.94
2018-06-09T04:15:19.566Z,18.91
2018-06-09T04:16:19.550Z,18.85
2018-06-09T04:17:19.536Z,18.92
2018-06-09T04:18:19.535Z,18.88
2018-06-09T04:19:19.517Z,18.85
2018-06-09T04:20:19.498Z,18.88
2018-06-09T04:21:19.481Z,18.88
2018-06-09T04:22:19.462Z,18.95
2018-06-09T04:23:19.449Z,18.94
2018-06-09T04:24:19.452Z,18.92
2018-06-09T04:25:19.421Z,18.92
2018-06-09T04:26:19.409Z,19.02
2018-06-09T04:27:19.395Z,18.88
2018-06-09T04:28:19.415Z,19.02
2018-06-09T04:29:19.362Z,18.99
2018-06-09T04:30:19.370Z,18.88
2018-06-09T04:31:19.336Z,18.91
2018-06-09T04:32:19.322Z,18.90
2018-06-09T04:33:19.305Z,19.02
2018-06-09T04:34:19.290Z,18.91
2018-06-09T04:35:19.275Z,18.98
2018-06-09T04:36:19.270Z,19.00
2018-06-09T04:37:19.248Z,18.99
2018-06-09T04:38:19.232Z,18.98
2018-06-09T04:39:19.217Z,18.99
2018-06-09T04:40:19.225Z,18.98
2018-06-09T04:41:19.197Z,18.92
2018-06-09T04:42:19.174Z,18.99
2018-06-09T04:43:19.162Z,19.00
2018-06-09T04:44:19.145Z,18.91
2018-06-09T04:45:19.131Z,18.95
2018-06-09T04:46:19.132Z,18.88
2018-06-09T04:47:19.110Z,18.94
2018-06-09T04:48:19.088Z,18.94
2018-06-09T04:49:19.073Z,18.98
2018-06-09T04:50:19.057Z,18.99
2018-06-09T04:51:19.045Z,18.99
2018-06-09T04:52:19.045Z,19.04
2018-06-09T04:53:19.017Z,18.94
2018-06-09T04:54:18.999Z,19.00
2018-06-09T04:55:18.987Z,19.04
2018-06-09T04:56:18.971Z,18.91
2018-06-09T04:57:18.957Z,19.08
2018-06-09T04:58:18.951Z,18.94
2018-06-09T04:59:18.968Z,19.00
2018-06-09T05:00:18.914Z,18.95
2018-06-09T05:01:18.899Z,19.11
2018-06-09T05:02:18.884Z,19.08
2018-06-09T05:03:18.882Z,19.10
2018-06-09T05:04:18.857Z,19.08
2018-06-09T05:05:18.839Z,19.13
2018-06-09T05:06:18.826Z,19.00
2018-06-09T05:07:18.876Z,19.08
2018-06-09T05:08:18.814Z,19.10
2018-06-09T05:09:18.782Z,19.07
2018-06-09T05:10:18.766Z,19.10
2018-06-09T05:11:18.757Z,19.19
2018-06-09T05:12:18.738Z,19.26
2018-06-09T05:13:18.761Z,19.18
2018-06-09T05:14:18.724Z,19.28
2018-06-09T05:15:18.698Z,19.32
2018-06-09T05:16:18.682Z,19.29
2018-06-09T05:17:18.669Z,19.32
2018-06-09T05:18:18.702Z,19.39
2018-06-09T05:19:18.637Z,19.44
2018-06-09T05:20:18.637Z,19.40
2018-06-09T05:21:18.609Z,19.31
2018-06-09T10:31:38.016Z,25.06
2018-06-09T10:32:37.927Z,25.17
2018-06-09T10:33:37.922Z,25.30
2018-06-09T10:34:37.922Z,25.80
2018-06-09T10:35:37.892Z,26.01
2018-06-09T10:36:37.880Z,25.80
2018-06-09T10:37:37.871Z,26.02
2018-06-09T10:38:37.875Z,26.02
2018-06-09T10:39:37.843Z,26.15
2018-06-09T10:40:37.844Z,25.87
2018-06-09T10:41:37.820Z,25.62
2018-06-09T10:42:37.809Z,25.62
2018-06-09T10:43:37.803Z,25.97
2018-06-09T10:44:37.802Z,26.32
2018-06-09T10:45:37.803Z,26.07
2018-06-09T10:46:37.771Z,26.20
2018-06-09T10:47:37.755Z,26.32
2018-06-09T10:48:37.752Z,26.30
2018-06-09T10:49:37.735Z,26.33
2018-06-09T10:50:37.721Z,26.57
2018-06-09T10:51:37.727Z,26.60
2018-06-09T10:52:37.707Z,27.14
2018-06-09T10:53:37.698Z,27.13
2018-06-09T10:54:37.683Z,27.78
2018-06-09T10:55:37.673Z,27.72
2018-06-09T10:56:37.695Z,27.03
2018-06-09T10:57:37.662Z,27.19
2018-06-09T10:58:37.644Z,26.67
2018-06-09T10:59:37.639Z,26.47
2018-06-09T11:00:37.628Z,26.62
2018-06-09T11:01:37.616Z,27.00
2018-06-09T11:02:37.617Z,27.69
2018-06-09T11:03:37.598Z,28.24
2018-06-09T11:04:37.585Z,27.87
2018-06-09T11:05:37.575Z,26.77
2018-06-09T11:06:37.567Z,26.28
2018-06-09T11:07:37.567Z,26.87
2018-06-09T11:08:37.547Z,27.60
2018-06-09T11:09:37.537Z,27.39
2018-06-09T11:10:37.531Z,27.72
2018-06-09T11:11:37.519Z,27.51
2018-06-09T11:12:37.525Z,26.87
2018-06-09T11:13:37.498Z,27.22
2018-06-09T11:14:37.494Z,27.67
2018-06-09T11:15:37.478Z,27.94
2018-06-09T11:16:37.477Z,27.77
2018-06-09T11:17:37.476Z,28.14
2018-06-09T11:18:37.448Z,28.36
2018-06-09T11:19:37.442Z,28.37
2018-06-09T11:20:37.433Z,28.54
2018-06-09T11:21:37.423Z,27.70
2018-06-09T11:22:37.414Z,27.63
2018-06-09T11:23:37.418Z,27.10
2018-06-09T11:24:37.405Z,26.63
2018-06-09T11:25:37.385Z,27.13
2018-06-09T11:26:37.376Z,27.55
2018-06-09T11:27:37.386Z,27.99
2018-06-09T11:28:37.355Z,28.07
2018-06-09T11:29:37.363Z,28.24
2018-06-09T11:30:37.337Z,28.30
2018-06-09T11:31:37.328Z,27.29
2018-06-09T11:32:37.320Z,27.75
2018-06-09T11:33:37.327Z,27.85
2018-06-09T11:34:37.300Z,27.93
2018-06-09T11:35:37.294Z,27.50
2018-06-09T11:36:37.281Z,27.67
2018-06-09T11:37:37.265Z,28.25
2018-06-09T11:38:37.260Z,28.40
2018-06-09T11:39:37.264Z,28.76
2018-06-09T11:40:37.247Z,29.00
2018-06-09T11:41:37.236Z,29.14
2018-06-09T11:42:37.225Z,28.29
2018-06-09T11:43:37.219Z,27.82
2018-06-09T11:44:37.216Z,27.60
2018-06-09T11:45:37.195Z,27.74
2018-06-09T11:46:37.185Z,27.93
2018-06-09T11:47:37.181Z,27.78
2018-06-09T11:48:37.174Z,27.94
2018-06-09T11:49:37.166Z,28.40
2018-06-09T11:50:37.179Z,28.54
2018-06-09T11:51:37.144Z,28.48
2018-06-09T11:52:37.128Z,28.83
2018-06-09T11:53:37.123Z,28.49
2018-06-09T11:54:37.125Z,28.66
2018-06-09T11:55:37.110Z,28.89
2018-06-09T11:56:37.097Z,28.71
2018-06-09T11:57:37.086Z,29.02
2018-06-09T11:58:37.146Z,29.04
2018-06-09T11:59:37.078Z,29.16
2018-06-09T12:00:37.057Z,29.37
2018-06-09T12:01:37.048Z,29.37
2018-06-09T12:02:37.035Z,29.68
2018-06-09T12:03:37.030Z,29.74
2018-06-09T12:04:37.038Z,29.87
2018-06-09T12:05:37.019Z,30.00
2018-06-09T12:06:37.003Z,30.01
2018-06-09T12:07:36.988Z,29.65
2018-06-09T12:08:36.985Z,29.86
2018-06-09T12:09:36.997Z,30.11
2018-06-09T12:10:36.963Z,29.87
2018-06-09T12:11:36.955Z,30.45
2018-06-09T12:12:36.946Z,30.45
2018-06-09T12:13:36.937Z,30.19
2018-06-09T12:14:36.932Z,30.24
2018-06-09T12:15:36.936Z,30.20
2018-06-09T12:16:36.911Z,29.79
2018-06-09T12:17:36.901Z,30.31
2018-06-09T12:18:36.891Z,31.06
2018-06-09T12:19:36.884Z,30.55
2018-06-09T12:20:36.875Z,30.27
2018-06-09T12:21:36.876Z,30.08
2018-06-09T12:22:36.870Z,29.89
2018-06-09T12:23:36.848Z,30.13
2018-06-09T12:24:36.846Z,30.47
2018-06-09T12:25:36.830Z,30.37
2018-06-09T12:26:36.838Z,29.79
2018-06-09T12:27:36.819Z,29.49
2018-06-09T12:28:36.807Z,29.46
2018-06-09T12:29:36.796Z,30.07
2018-06-09T12:30:36.786Z,30.17
2018-06-09T12:31:36.797Z,30.11
2018-06-09T12:32:36.793Z,30.10
2018-06-09T12:33:36.757Z,30.70
2018-06-09T12:34:36.751Z,30.51
2018-06-09T12:35:36.745Z,30.02
2018-06-09T12:36:36.751Z,29.76
2018-06-09T12:37:36.728Z,28.89
2018-06-09T12:38:36.717Z,28.98
2018-06-09T12:39:36.710Z,28.88
2018-06-09T12:40:36.704Z,29.21
2018-06-09T12:41:36.713Z,29.23
2018-06-09T12:42:36.684Z,28.88
2018-06-09T12:43:36.685Z,28.80
2018-06-09T12:44:36.681Z,29.04
2018-06-09T12:45:36.654Z,29.55
2018-06-09T12:46:36.661Z,29.19
2018-06-09T12:47:36.647Z,28.67
2018-06-09T12:48:36.678Z,28.81
2018-06-09T12:49:36.625Z,28.52
2018-06-09T12:50:36.617Z,28.61
2018-06-09T12:51:36.676Z,28.96
2018-06-09T12:52:36.599Z,28.88
2018-06-09T12:53:36.588Z,28.86
2018-06-09T12:54:36.581Z,28.98
2018-06-09T12:55:36.574Z,29.46
2018-06-09T12:56:36.583Z,29.60
2018-06-09T12:57:36.559Z,30.02
2018-06-09T12:58:36.547Z,29.70
2018-06-09T12:59:36.540Z,29.26
2018-06-09T13:00:36.540Z,29.39
2018-06-09T13:01:36.521Z,29.42
2018-06-09T13:02:36.525Z,29.78
2018-06-09T13:03:36.504Z,29.87
2018-06-09T13:04:36.499Z,29.85
2018-06-09T13:05:36.489Z,29.30
2018-06-09T13:06:36.480Z,29.76
2018-06-09T13:07:36.469Z,30.13
2018-06-09T13:08:36.479Z,30.20
2018-06-09T13:09:36.455Z,30.37
2018-06-09T13:10:36.447Z,30.02
2018-06-09T13:11:36.439Z,29.48
2018-06-09T13:12:36.430Z,29.09
2018-06-09T13:13:36.430Z,30.07
2018-06-09T13:14:36.415Z,30.05
2018-06-09T13:15:36.407Z,30.19
2018-06-09T13:16:36.404Z,30.45
2018-06-09T13:17:36.391Z,29.14
2018-06-09T13:18:36.398Z,29.16
2018-06-09T13:19:36.433Z,29.43
2018-06-09T13:20:36.371Z,29.78
2018-06-09T13:21:36.361Z,29.78
2018-06-09T13:22:36.361Z,29.31
2018-06-09T13:23:36.353Z,29.27
2018-06-09T13:24:36.354Z,30.24
2018-06-09T13:25:36.331Z,30.95
2018-06-09T13:26:36.322Z,31.01
2018-06-09T13:27:36.317Z,30.67
2018-06-09T13:28:36.314Z,30.69
2018-06-09T13:29:36.335Z,30.49
2018-06-09T13:30:36.312Z,30.05
2018-06-09T13:31:36.286Z,30.26
2018-06-09T13:32:36.279Z,30.17
2018-06-09T13:33:36.271Z,31.14
2018-06-09T13:34:36.265Z,30.99
2018-06-09T13:35:36.277Z,30.58
2018-06-09T13:36:36.253Z,30.65
2018-06-09T13:37:36.241Z,30.77
2018-06-09T13:38:36.233Z,30.60
2018-06-09T13:39:36.234Z,30.24
2018-06-09T13:40:36.228Z,30.38
2018-06-09T13:41:36.229Z,30.70
2018-06-09T13:42:36.213Z,30.22
2018-06-09T13:43:36.201Z,29.15
2018-06-09T13:44:36.194Z,29.73
2018-06-09T13:45:36.223Z,30.19
2018-06-09T13:46:36.178Z,29.78
2018-06-09T13:47:36.179Z,29.73
2018-06-09T13:48:36.167Z,30.24
2018-06-09T13:49:36.158Z,29.64
2018-06-09T13:50:36.158Z,30.54
2018-06-09T13:51:36.157Z,30.73
2018-06-09T13:52:36.147Z,31.41
2018-06-09T13:53:36.133Z,31.09
2018-06-09T13:54:36.175Z,31.32
2018-06-09T13:55:36.121Z,30.23
2018-06-09T13:56:36.152Z,30.84
2018-06-09T13:57:36.110Z,30.72
2018-06-09T13:58:36.105Z,30.47
2018-06-09T13:59:36.097Z,31.32
2018-06-09T14:00:36.090Z,31.89
2018-06-09T14:01:36.131Z,31.01
2018-06-09T14:02:36.079Z,31.14
2018-06-09T14:03:36.072Z,31.31
2018-06-09T14:04:36.072Z,30.97
2018-06-09T14:05:36.065Z,31.23
2018-06-09T14:06:36.053Z,31.43
2018-06-09T14:07:36.072Z,31.48
2018-06-09T14:08:36.046Z,31.51
2018-06-09T14:09:36.039Z,29.90
2018-06-09T14:10:36.039Z,30.42
2018-06-09T14:11:36.028Z,30.82
2018-06-09T14:12:36.024Z,31.39
2018-06-09T14:13:36.032Z,31.89
2018-06-09T14:14:36.014Z,31.96
2018-06-09T14:15:36.008Z,32.29
2018-06-09T14:16:36.010Z,32.29
2018-06-09T14:17:35.999Z,31.78
2018-06-09T14:18:36.004Z,31.99
2018-06-09T14:19:35.993Z,31.91
2018-06-09T14:20:35.985Z,32.19
2018-06-09T14:21:35.986Z,31.54
2018-06-09T14:22:35.980Z,32.10
2018-06-09T14:23:35.989Z,31.54
2018-06-09T14:24:35.967Z,30.88
2018-06-09T14:25:35.961Z,31.32
2018-06-09T14:26:35.954Z,31.76
2018-06-09T14:27:35.951Z,32.14
2018-06-09T14:28:35.962Z,32.13
2018-06-09T14:29:35.943Z,32.25
2018-06-09T14:30:35.939Z,32.67
2018-06-09T14:31:35.933Z,33.01
2018-06-09T14:32:35.939Z,32.78
2018-06-09T14:33:35.938Z,32.37
2018-06-09T14:34:35.933Z,31.84
2018-06-09T14:35:35.921Z,30.57
2018-06-09T14:36:35.917Z,31.58
2018-06-09T14:37:35.912Z,30.88
2018-06-09T14:38:35.916Z,30.88
2018-06-09T14:39:35.903Z,30.88
2018-06-09T14:40:35.900Z,31.73
2018-06-09T14:41:35.894Z,31.96
2018-06-09T14:42:35.889Z,31.29
2018-06-09T14:43:35.920Z,31.47
2018-06-09T14:44:35.885Z,31.68
2018-06-09T14:45:35.880Z,31.99
2018-06-09T14:46:35.874Z,31.96
2018-06-09T14:47:35.876Z,32.11
2018-06-09T14:48:35.868Z,32.66
2018-06-09T14:49:35.879Z,32.92
2018-06-09T14:50:35.866Z,32.33
2018-06-09T14:51:35.857Z,31.02
2018-06-09T14:52:35.852Z,30.43
2018-06-09T14:53:35.851Z,30.70
2018-06-09T14:54:35.846Z,30.97
2018-06-09T14:55:35.867Z,31.12
2018-06-09T14:56:35.840Z,31.62
2018-06-09T14:57:35.834Z,31.50
2018-06-09T14:58:35.838Z,31.17
2018-06-09T14:59:35.830Z,31.29
2018-06-09T15:00:35.836Z,31.21
2018-06-09T15:01:35.830Z,30.37
2018-06-09T15:02:35.818Z,30.05
2018-06-09T15:03:35.821Z,30.57
2018-06-09T15:04:35.811Z,30.98
2018-06-09T15:05:35.827Z,30.38
2018-06-09T15:06:35.810Z,30.31
2018-06-09T15:07:35.803Z,30.92
2018-06-09T15:08:35.796Z,30.92
2018-06-09T15:09:35.812Z,30.62
2018-06-09T15:10:35.799Z,30.35
2018-06-09T15:11:35.787Z,30.70
2018-06-09T15:12:35.790Z,30.54
2018-06-09T15:13:35.775Z,30.80
2018-06-09T15:14:35.774Z,30.77
2018-06-09T15:15:35.786Z,30.80
2018-06-09T15:16:35.769Z,30.65
2018-06-09T15:17:35.761Z,30.47
2018-06-09T15:18:35.748Z,30.69
2018-06-09T15:19:35.816Z,30.15
2018-06-09T15:20:35.776Z,30.49
2018-06-09T15:21:35.738Z,30.38
2018-06-09T15:22:35.791Z,30.65
2018-06-09T15:23:35.729Z,30.22
2018-06-09T15:24:35.727Z,31.17
2018-06-09T15:25:35.720Z,31.32
2018-06-09T15:26:35.734Z,31.48
2018-06-09T15:27:35.711Z,30.00
2018-06-09T15:28:35.715Z,29.78
2018-06-09T15:29:35.699Z,29.65
2018-06-09T15:30:35.697Z,29.71
2018-06-09T15:31:35.688Z,30.31
2018-06-09T15:32:35.695Z,29.76
2018-06-09T15:33:35.677Z,29.94
2018-06-09T15:34:35.666Z,30.20
2018-06-09T15:35:35.662Z,30.46
2018-06-09T15:36:35.664Z,31.51
2018-06-09T15:37:35.668Z,31.57
2018-06-09T15:38:35.665Z,32.60
2018-06-09T15:39:35.644Z,33.12
2018-06-09T15:40:35.641Z,33.82
2018-06-09T15:41:35.631Z,33.19
2018-06-09T15:42:35.908Z,33.21
2018-06-09T15:43:35.627Z,31.61
2018-06-09T15:44:35.620Z,31.51
2018-06-09T15:45:35.617Z,31.73
2018-06-09T15:46:35.619Z,31.12
2018-06-09T15:47:35.607Z,31.46
2018-06-09T15:48:35.624Z,31.75
2018-06-09T15:49:35.599Z,32.21
2018-06-09T15:50:35.604Z,32.40
2018-06-09T15:51:35.591Z,32.51
2018-06-09T15:52:35.590Z,32.78
2018-06-09T15:53:35.642Z,33.21
2018-06-09T15:54:35.608Z,32.33
2018-06-09T15:55:35.580Z,32.14
2018-06-09T15:56:35.573Z,32.21
2018-06-09T15:57:35.568Z,32.85
2018-06-09T15:58:35.573Z,33.73
2018-06-09T15:59:35.580Z,33.95
2018-06-09T16:00:35.561Z,33.41
2018-06-09T16:01:35.565Z,33.49
2018-06-09T16:02:35.554Z,34.03
2018-06-09T16:03:35.553Z,33.82
2018-06-09T16:04:35.562Z,32.77
2018-06-09T16:05:35.549Z,32.63
2018-06-09T16:06:35.551Z,31.36
2018-06-09T16:07:35.550Z,31.80
2018-06-09T16:08:35.544Z,31.26
2018-06-09T16:09:35.554Z,31.69
2018-06-09T16:10:35.533Z,31.54
2018-06-09T16:11:35.540Z,32.22
2018-06-09T16:12:35.534Z,33.07
2018-06-09T16:13:35.533Z,33.04
2018-06-09T16:14:35.528Z,33.31
2018-06-09T16:15:35.562Z,33.29
2018-06-09T16:16:35.525Z,33.49
2018-06-09T16:17:35.524Z,32.81
2018-06-09T16:18:35.521Z,31.75
2018-06-09T16:19:35.524Z,31.53
2018-06-09T16:20:35.515Z,31.39
2018-06-09T16:21:35.524Z,31.47
2018-06-09T16:22:35.510Z,31.43
2018-06-09T16:23:35.513Z,31.57
2018-06-09T16:24:35.510Z,31.46
2018-06-09T16:25:35.507Z,30.29
2018-06-09T16:26:35.516Z,30.70
2018-06-09T16:27:35.500Z,31.20
2018-06-09T16:28:35.500Z,30.57
2018-06-09T16:29:35.494Z,30.15
2018-06-09T16:30:35.494Z,30.16
2018-06-09T16:31:35.488Z,29.57
2018-06-09T16:32:35.541Z,29.46
2018-06-09T16:33:35.480Z,29.51
2018-06-09T16:34:35.484Z,29.98
2018-06-09T16:35:35.475Z,29.46
2018-06-09T16:36:35.480Z,29.51
2018-06-09T16:37:35.480Z,29.98
2018-06-09T16:38:35.498Z,30.20
2018-06-09T16:39:35.463Z,30.16
2018-06-09T16:40:35.451Z,29.63
2018-06-09T16:41:35.459Z,29.24
2018-06-09T16:42:35.436Z,28.54
2018-06-09T16:43:35.432Z,28.39
2018-06-09T16:44:35.429Z,28.48
2018-06-09T16:45:35.456Z,28.17
2018-06-09T16:46:35.429Z,28.02
2018-06-09T16:47:35.456Z,27.79
2018-06-09T16:48:35.403Z,27.88
2018-06-09T16:49:35.396Z,27.79
2018-06-09T16:50:35.395Z,27.92
2018-06-09T16:51:35.402Z,27.77
2018-06-09T16:52:35.377Z,27.78
2018-06-09T16:53:35.367Z,27.70
2018-06-09T16:54:35.381Z,27.63
2018-06-09T16:55:35.360Z,27.49
2018-06-09T16:56:35.352Z,27.51
2018-06-09T16:57:35.354Z,27.46
2018-06-09T16:58:35.335Z,27.39
2018-06-09T16:59:35.329Z,27.36
2018-06-09T17:00:35.318Z,27.39
2018-06-09T17:01:35.315Z,27.31
2018-06-09T17:02:35.588Z,27.46
2018-06-09T17:03:35.294Z,27.44
2018-06-09T17:04:35.288Z,27.39
2018-06-09T17:05:35.277Z,27.40
2018-06-09T17:06:35.274Z,27.39
2018-06-09T17:07:35.261Z,27.40
2018-06-09T17:08:35.269Z,27.28
2018-06-09T17:09:35.241Z,27.31
2018-06-09T17:10:35.237Z,27.28
2018-06-09T17:11:35.226Z,27.28
2018-06-09T17:12:35.218Z,27.32
2018-06-09T17:13:35.211Z,27.18
2018-06-09T17:14:35.208Z,27.22
2018-06-09T17:15:35.192Z,27.10
2018-06-09T17:16:35.181Z,27.13
2018-06-09T17:17:35.173Z,27.17
2018-06-09T17:18:35.187Z,27.19
2018-06-09T17:19:35.155Z,27.21
2018-06-09T17:20:35.145Z,27.07
2018-06-09T17:21:35.151Z,27.00
2018-06-09T17:22:35.138Z,27.02
2018-06-09T17:23:35.121Z,27.03
2018-06-09T17:24:35.120Z,26.87
2018-06-09T17:25:35.101Z,26.97
2018-06-09T17:26:35.092Z,26.85
2018-06-09T17:27:35.077Z,26.92
2018-06-09T17:28:35.072Z,26.99
2018-06-09T17:29:35.077Z,26.89
2018-06-09T17:30:35.052Z,26.95
2018-06-09T17:31:35.045Z,26.92
2018-06-09T17:32:35.033Z,26.81
2018-06-09T17:33:35.037Z,26.75
2018-06-09T17:34:35.016Z,26.60
2018-06-09T17:35:35.004Z,26.70
2018-06-09T17:36:35.000Z,26.65
2018-06-09T17:37:34.989Z,26.69
2018-06-09T17:38:34.994Z,26.62
2018-06-09T17:39:34.966Z,26.55
2018-06-09T17:40:34.956Z,26.57
2018-06-09T17:41:34.945Z,26.55
2018-06-09T17:42:34.937Z,26.65
2018-06-09T17:43:34.935Z,26.57
2018-06-09T17:44:34.916Z,26.47
2018-06-09T17:45:34.915Z,26.55
2018-06-09T17:46:34.897Z,26.45
2018-06-09T17:47:34.887Z,26.50
2018-06-09T17:48:34.895Z,26.45
2018-06-09T17:49:34.870Z,26.45
2018-06-09T17:50:34.857Z,26.40
2018-06-09T17:51:34.848Z,26.40
2018-06-09T17:52:34.841Z,26.40
2018-06-09T17:53:34.845Z,26.40
2018-06-09T17:54:34.817Z,26.43
2018-06-09T17:55:34.816Z,26.51
2018-06-09T17:56:34.798Z,26.44
2018-06-09T17:57:34.784Z,26.45
2018-06-09T17:58:34.780Z,26.44
2018-06-09T17:59:34.783Z,26.40
2018-06-09T18:00:34.755Z,26.36
2018-06-09T18:01:34.749Z,26.26